sensor_id;sensor_type;location;lat;lon;timestamp;P1;durP1;ratioP1;P2;durP2;ratioP2
70148;SDS011;57514;52.164;5.282;2024-03-08T00:00:01;28.05;;;15.23;;
70148;SDS011;57514;52.164;5.282;2024-03-08T00:02:36;31.95;;;14.82;;
70148;SDS011;57514;52.164;5.282;2024-03-08T00:05:04;29.88;;;13.90;;
70148;SDS011;57514;52.164;5.282;2024-03-08T00:07:32;34.50;;;14.68;;
70148;SDS011;57514;52.164;5.282;2024-03-08T00:09:59;34.67;;;16.90;;
70148;SDS011;57514;52.164;5.282;2024-03-08T00:12:27;35.97;;;15.23;;
70148;SDS011;57514;52.164;5.282;2024-03-08T00:14:54;32.10;;;14.55;;
70148;SDS011;57514;52.164;5.282;2024-03-08T00:17:21;33.90;;;13.80;;
70148;SDS011;57514;52.164;5.282;2024-03-08T00:19:49;31.55;;;14.00;;
70148;SDS011;57514;52.164;5.282;2024-03-08T00:22:17;29.70;;;13.20;;
70148;SDS011;57514;52.164;5.282;2024-03-08T00:24:44;26.98;;;13.07;;
70148;SDS011;57514;52.164;5.282;2024-03-08T00:27:11;34.83;;;15.63;;
70148;SDS011;57514;52.164;5.282;2024-03-08T00:29:39;27.33;;;12.63;;
70148;SDS011;57514;52.164;5.282;2024-03-08T00:32:06;25.20;;;11.75;;
70148;SDS011;57514;52.164;5.282;2024-03-08T00:34:37;33.72;;;15.32;;
70148;SDS011;57514;52.164;5.282;2024-03-08T00:37:06;30.15;;;13.95;;
70148;SDS011;57514;52.164;5.282;2024-03-08T00:39:35;35.63;;;14.85;;
70148;SDS011;57514;52.164;5.282;2024-03-08T00:42:03;24.90;;;11.93;;
70148;SDS011;57514;52.164;5.282;2024-03-08T00:44:30;34.13;;;14.38;;
70148;SDS011;57514;52.164;5.282;2024-03-08T00:46:58;27.77;;;12.38;;
70148;SDS011;57514;52.164;5.282;2024-03-08T00:49:26;32.25;;;15.13;;
70148;SDS011;57514;52.164;5.282;2024-03-08T00:51:53;32.50;;;14.00;;
70148;SDS011;57514;52.164;5.282;2024-03-08T00:54:21;34.53;;;14.52;;
70148;SDS011;57514;52.164;5.282;2024-03-08T00:56:48;34.38;;;13.23;;
70148;SDS011;57514;52.164;5.282;2024-03-08T00:59:16;32.03;;;14.63;;
70148;SDS011;57514;52.164;5.282;2024-03-08T01:01:43;29.55;;;12.18;;
70148;SDS011;57514;52.164;5.282;2024-03-08T01:04:10;30.65;;;13.57;;
70148;SDS011;57514;52.164;5.282;2024-03-08T01:06:37;36.75;;;13.65;;
70148;SDS011;57514;52.164;5.282;2024-03-08T01:09:05;30.33;;;13.45;;
70148;SDS011;57514;52.164;5.282;2024-03-08T01:11:35;30.10;;;14.80;;
70148;SDS011;57514;52.164;5.282;2024-03-08T01:14:03;24.42;;;10.65;;
70148;SDS011;57514;52.164;5.282;2024-03-08T01:16:30;28.55;;;12.27;;
70148;SDS011;57514;52.164;5.282;2024-03-08T01:18:59;35.33;;;14.48;;
70148;SDS011;57514;52.164;5.282;2024-03-08T01:21:26;30.75;;;14.15;;
70148;SDS011;57514;52.164;5.282;2024-03-08T01:23:54;33.90;;;15.25;;
70148;SDS011;57514;52.164;5.282;2024-03-08T01:26:21;31.48;;;13.80;;
70148;SDS011;57514;52.164;5.282;2024-03-08T01:28:49;33.63;;;15.73;;
70148;SDS011;57514;52.164;5.282;2024-03-08T01:31:16;33.55;;;14.15;;
70148;SDS011;57514;52.164;5.282;2024-03-08T01:33:43;28.95;;;14.00;;
70148;SDS011;57514;52.164;5.282;2024-03-08T01:36:11;33.20;;;15.25;;
70148;SDS011;57514;52.164;5.282;2024-03-08T01:38:42;29.52;;;13.30;;
70148;SDS011;57514;52.164;5.282;2024-03-08T01:41:09;28.23;;;11.80;;
70148;SDS011;57514;52.164;5.282;2024-03-08T01:43:39;26.83;;;13.52;;
70148;SDS011;57514;52.164;5.282;2024-03-08T01:46:06;21.20;;;9.52;;
70148;SDS011;57514;52.164;5.282;2024-03-08T01:48:34;25.73;;;11.75;;
70148;SDS011;57514;52.164;5.282;2024-03-08T01:51:02;23.88;;;11.25;;
70148;SDS011;57514;52.164;5.282;2024-03-08T01:53:30;28.60;;;13.27;;
70148;SDS011;57514;52.164;5.282;2024-03-08T01:55:57;30.60;;;14.13;;
70148;SDS011;57514;52.164;5.282;2024-03-08T01:58:28;29.38;;;12.60;;
70148;SDS011;57514;52.164;5.282;2024-03-08T02:00:56;29.15;;;14.15;;
70148;SDS011;57514;52.164;5.282;2024-03-08T02:03:26;27.65;;;13.75;;
70148;SDS011;57514;52.164;5.282;2024-03-08T02:05:54;33.13;;;14.57;;
70148;SDS011;57514;52.164;5.282;2024-03-08T02:08:21;31.80;;;14.98;;
70148;SDS011;57514;52.164;5.282;2024-03-08T02:10:49;26.42;;;12.38;;
70148;SDS011;57514;52.164;5.282;2024-03-08T02:13:17;26.35;;;11.80;;
70148;SDS011;57514;52.164;5.282;2024-03-08T02:15:55;29.83;;;14.27;;
70148;SDS011;57514;52.164;5.282;2024-03-08T02:18:23;33.60;;;13.95;;
70148;SDS011;57514;52.164;5.282;2024-03-08T02:20:51;31.83;;;14.40;;
70148;SDS011;57514;52.164;5.282;2024-03-08T02:23:19;36.63;;;15.75;;
70148;SDS011;57514;52.164;5.282;2024-03-08T02:25:47;33.95;;;14.85;;
70148;SDS011;57514;52.164;5.282;2024-03-08T02:28:14;31.30;;;12.77;;
70148;SDS011;57514;52.164;5.282;2024-03-08T02:30:42;38.30;;;15.18;;
70148;SDS011;57514;52.164;5.282;2024-03-08T02:33:09;33.15;;;14.00;;
70148;SDS011;57514;52.164;5.282;2024-03-08T02:35:37;31.83;;;14.27;;
70148;SDS011;57514;52.164;5.282;2024-03-08T02:38:04;29.77;;;14.38;;
70148;SDS011;57514;52.164;5.282;2024-03-08T02:40:31;30.83;;;14.43;;
70148;SDS011;57514;52.164;5.282;2024-03-08T02:42:59;32.85;;;13.57;;
70148;SDS011;57514;52.164;5.282;2024-03-08T02:45:26;36.03;;;14.40;;
70148;SDS011;57514;52.164;5.282;2024-03-08T02:47:53;33.00;;;14.90;;
70148;SDS011;57514;52.164;5.282;2024-03-08T02:50:21;30.67;;;13.95;;
70148;SDS011;57514;52.164;5.282;2024-03-08T02:52:48;30.48;;;14.18;;
70148;SDS011;57514;52.164;5.282;2024-03-08T02:55:15;27.58;;;13.30;;
70148;SDS011;57514;52.164;5.282;2024-03-08T02:57:43;32.17;;;16.15;;
70148;SDS011;57514;52.164;5.282;2024-03-08T03:00:10;31.70;;;15.63;;
70148;SDS011;57514;52.164;5.282;2024-03-08T03:02:39;35.38;;;16.13;;
70148;SDS011;57514;52.164;5.282;2024-03-08T03:05:06;35.60;;;15.15;;
70148;SDS011;57514;52.164;5.282;2024-03-08T03:07:35;28.73;;;13.52;;
70148;SDS011;57514;52.164;5.282;2024-03-08T03:10:03;31.67;;;15.50;;
70148;SDS011;57514;52.164;5.282;2024-03-08T03:12:31;34.00;;;15.10;;
70148;SDS011;57514;52.164;5.282;2024-03-08T03:15:00;28.30;;;13.07;;
70148;SDS011;57514;52.164;5.282;2024-03-08T03:17:28;33.47;;;16.65;;
70148;SDS011;57514;52.164;5.282;2024-03-08T03:19:55;32.33;;;14.95;;
70148;SDS011;57514;52.164;5.282;2024-03-08T03:22:22;35.42;;;16.70;;
70148;SDS011;57514;52.164;5.282;2024-03-08T03:24:51;34.97;;;15.02;;
70148;SDS011;57514;52.164;5.282;2024-03-08T03:27:19;31.85;;;14.27;;
70148;SDS011;57514;52.164;5.282;2024-03-08T03:29:47;30.85;;;15.68;;
70148;SDS011;57514;52.164;5.282;2024-03-08T03:32:16;31.83;;;15.43;;
70148;SDS011;57514;52.164;5.282;2024-03-08T03:34:44;31.38;;;15.15;;
70148;SDS011;57514;52.164;5.282;2024-03-08T03:37:12;34.47;;;14.15;;
70148;SDS011;57514;52.164;5.282;2024-03-08T03:39:39;36.00;;;15.45;;
70148;SDS011;57514;52.164;5.282;2024-03-08T03:42:15;35.42;;;14.80;;
70148;SDS011;57514;52.164;5.282;2024-03-08T03:44:46;23.20;;;10.88;;
70148;SDS011;57514;52.164;5.282;2024-03-08T03:47:15;27.17;;;12.60;;
70148;SDS011;57514;52.164;5.282;2024-03-08T03:49:42;30.60;;;14.05;;
70148;SDS011;57514;52.164;5.282;2024-03-08T03:52:10;27.25;;;14.15;;
70148;SDS011;57514;52.164;5.282;2024-03-08T03:54:37;33.80;;;15.05;;
70148;SDS011;57514;52.164;5.282;2024-03-08T03:57:04;32.05;;;15.00;;
70148;SDS011;57514;52.164;5.282;2024-03-08T03:59:32;24.70;;;11.18;;
70148;SDS011;57514;52.164;5.282;2024-03-08T04:01:59;33.65;;;16.10;;
70148;SDS011;57514;52.164;5.282;2024-03-08T04:04:26;23.60;;;11.68;;
70148;SDS011;57514;52.164;5.282;2024-03-08T04:06:54;22.92;;;10.90;;
70148;SDS011;57514;52.164;5.282;2024-03-08T04:09:21;33.08;;;15.95;;
70148;SDS011;57514;52.164;5.282;2024-03-08T04:11:51;28.77;;;12.52;;
70148;SDS011;57514;52.164;5.282;2024-03-08T04:14:22;29.48;;;14.05;;
70148;SDS011;57514;52.164;5.282;2024-03-08T04:16:49;28.45;;;13.50;;
70148;SDS011;57514;52.164;5.282;2024-03-08T04:19:17;33.78;;;15.60;;
70148;SDS011;57514;52.164;5.282;2024-03-08T04:21:45;27.60;;;13.43;;
70148;SDS011;57514;52.164;5.282;2024-03-08T04:24:13;36.67;;;15.10;;
70148;SDS011;57514;52.164;5.282;2024-03-08T04:26:41;30.23;;;13.18;;
70148;SDS011;57514;52.164;5.282;2024-03-08T04:29:08;29.98;;;14.93;;
70148;SDS011;57514;52.164;5.282;2024-03-08T04:31:36;30.92;;;15.35;;
70148;SDS011;57514;52.164;5.282;2024-03-08T04:34:04;30.02;;;13.98;;
70148;SDS011;57514;52.164;5.282;2024-03-08T04:36:32;33.72;;;14.82;;
70148;SDS011;57514;52.164;5.282;2024-03-08T04:39:00;30.95;;;14.18;;
70148;SDS011;57514;52.164;5.282;2024-03-08T04:41:27;29.17;;;13.85;;
70148;SDS011;57514;52.164;5.282;2024-03-08T04:43:57;29.30;;;13.43;;
70148;SDS011;57514;52.164;5.282;2024-03-08T04:46:24;26.17;;;12.68;;
70148;SDS011;57514;52.164;5.282;2024-03-08T04:48:51;33.30;;;17.92;;
70148;SDS011;57514;52.164;5.282;2024-03-08T04:51:19;26.08;;;14.10;;
70148;SDS011;57514;52.164;5.282;2024-03-08T04:53:46;32.97;;;15.35;;
70148;SDS011;57514;52.164;5.282;2024-03-08T04:56:13;31.63;;;14.45;;
70148;SDS011;57514;52.164;5.282;2024-03-08T04:58:41;27.42;;;12.90;;
70148;SDS011;57514;52.164;5.282;2024-03-08T05:01:08;34.92;;;16.17;;
70148;SDS011;57514;52.164;5.282;2024-03-08T05:03:37;29.20;;;14.00;;
70148;SDS011;57514;52.164;5.282;2024-03-08T05:06:04;24.40;;;12.27;;
70148;SDS011;57514;52.164;5.282;2024-03-08T05:08:32;22.83;;;10.70;;
70148;SDS011;57514;52.164;5.282;2024-03-08T05:10:59;31.73;;;13.52;;
70148;SDS011;57514;52.164;5.282;2024-03-08T05:13:30;30.92;;;15.95;;
70148;SDS011;57514;52.164;5.282;2024-03-08T05:15:58;32.60;;;15.23;;
70148;SDS011;57514;52.164;5.282;2024-03-08T05:18:25;32.30;;;15.32;;
70148;SDS011;57514;52.164;5.282;2024-03-08T05:20:55;26.27;;;13.88;;
70148;SDS011;57514;52.164;5.282;2024-03-08T05:23:22;29.77;;;14.13;;
70148;SDS011;57514;52.164;5.282;2024-03-08T05:25:49;29.40;;;14.02;;
70148;SDS011;57514;52.164;5.282;2024-03-08T05:28:16;23.85;;;12.18;;
70148;SDS011;57514;52.164;5.282;2024-03-08T05:30:44;27.02;;;11.88;;
70148;SDS011;57514;52.164;5.282;2024-03-08T05:33:11;30.05;;;15.77;;
70148;SDS011;57514;52.164;5.282;2024-03-08T05:35:40;36.17;;;13.98;;
70148;SDS011;57514;52.164;5.282;2024-03-08T05:38:08;34.15;;;15.52;;
70148;SDS011;57514;52.164;5.282;2024-03-08T05:43:06;25.20;;;11.30;;
70148;SDS011;57514;52.164;5.282;2024-03-08T05:45:33;24.85;;;11.30;;
70148;SDS011;57514;52.164;5.282;2024-03-08T05:48:00;30.88;;;14.50;;
70148;SDS011;57514;52.164;5.282;2024-03-08T05:50:28;33.85;;;15.35;;
70148;SDS011;57514;52.164;5.282;2024-03-08T05:52:55;26.08;;;14.77;;
70148;SDS011;57514;52.164;5.282;2024-03-08T05:55:23;32.33;;;16.15;;
70148;SDS011;57514;52.164;5.282;2024-03-08T05:57:51;29.27;;;13.93;;
70148;SDS011;57514;52.164;5.282;2024-03-08T06:00:20;21.08;;;9.55;;
70148;SDS011;57514;52.164;5.282;2024-03-08T06:02:48;25.55;;;12.52;;
70148;SDS011;57514;52.164;5.282;2024-03-08T06:05:16;26.02;;;13.02;;
70148;SDS011;57514;52.164;5.282;2024-03-08T06:07:43;33.03;;;15.45;;
70148;SDS011;57514;52.164;5.282;2024-03-08T06:10:10;32.78;;;16.20;;
70148;SDS011;57514;52.164;5.282;2024-03-08T06:12:39;34.67;;;15.95;;
70148;SDS011;57514;52.164;5.282;2024-03-08T06:15:08;28.15;;;13.50;;
70148;SDS011;57514;52.164;5.282;2024-03-08T06:17:36;34.33;;;15.40;;
70148;SDS011;57514;52.164;5.282;2024-03-08T06:20:04;29.40;;;14.68;;
70148;SDS011;57514;52.164;5.282;2024-03-08T06:22:37;30.10;;;13.00;;
70148;SDS011;57514;52.164;5.282;2024-03-08T06:25:10;29.85;;;14.38;;
70148;SDS011;57514;52.164;5.282;2024-03-08T06:27:41;30.95;;;15.07;;
70148;SDS011;57514;52.164;5.282;2024-03-08T06:30:09;30.70;;;13.57;;
70148;SDS011;57514;52.164;5.282;2024-03-08T06:32:37;37.35;;;16.13;;
70148;SDS011;57514;52.164;5.282;2024-03-08T06:35:05;32.83;;;16.15;;
70148;SDS011;57514;52.164;5.282;2024-03-08T06:37:32;27.45;;;14.13;;
70148;SDS011;57514;52.164;5.282;2024-03-08T06:40:02;32.90;;;15.38;;
70148;SDS011;57514;52.164;5.282;2024-03-08T06:42:34;22.83;;;9.95;;
70148;SDS011;57514;52.164;5.282;2024-03-08T06:45:02;33.28;;;15.88;;
70148;SDS011;57514;52.164;5.282;2024-03-08T06:47:33;27.40;;;11.02;;
70148;SDS011;57514;52.164;5.282;2024-03-08T06:50:01;25.50;;;13.65;;
70148;SDS011;57514;52.164;5.282;2024-03-08T06:52:28;30.42;;;15.10;;
70148;SDS011;57514;52.164;5.282;2024-03-08T06:54:55;25.17;;;13.15;;
70148;SDS011;57514;52.164;5.282;2024-03-08T06:57:23;31.25;;;15.90;;
70148;SDS011;57514;52.164;5.282;2024-03-08T06:59:51;33.28;;;13.70;;
70148;SDS011;57514;52.164;5.282;2024-03-08T07:02:18;20.02;;;8.85;;
70148;SDS011;57514;52.164;5.282;2024-03-08T07:04:51;32.80;;;16.48;;
70148;SDS011;57514;52.164;5.282;2024-03-08T07:07:19;25.98;;;12.07;;
70148;SDS011;57514;52.164;5.282;2024-03-08T07:09:46;34.17;;;16.55;;
70148;SDS011;57514;52.164;5.282;2024-03-08T07:12:15;25.25;;;13.65;;
70148;SDS011;57514;52.164;5.282;2024-03-08T07:14:43;38.50;;;19.17;;
70148;SDS011;57514;52.164;5.282;2024-03-08T07:17:12;26.92;;;12.85;;
70148;SDS011;57514;52.164;5.282;2024-03-08T07:19:39;32.20;;;16.10;;
70148;SDS011;57514;52.164;5.282;2024-03-08T07:22:06;32.85;;;16.38;;
70148;SDS011;57514;52.164;5.282;2024-03-08T07:24:37;26.92;;;14.82;;
70148;SDS011;57514;52.164;5.282;2024-03-08T07:27:04;29.38;;;16.60;;
70148;SDS011;57514;52.164;5.282;2024-03-08T07:29:32;34.20;;;17.92;;
70148;SDS011;57514;52.164;5.282;2024-03-08T07:34:59;31.02;;;17.60;;
70148;SDS011;57514;52.164;5.282;2024-03-08T07:37:26;29.58;;;14.93;;
70148;SDS011;57514;52.164;5.282;2024-03-08T07:39:53;30.15;;;16.27;;
70148;SDS011;57514;52.164;5.282;2024-03-08T07:42:20;27.30;;;15.13;;
70148;SDS011;57514;52.164;5.282;2024-03-08T07:44:49;30.20;;;16.80;;
70148;SDS011;57514;52.164;5.282;2024-03-08T07:47:16;32.22;;;15.82;;
70148;SDS011;57514;52.164;5.282;2024-03-08T07:49:47;33.45;;;17.33;;
70148;SDS011;57514;52.164;5.282;2024-03-08T07:52:15;38.20;;;18.38;;
70148;SDS011;57514;52.164;5.282;2024-03-08T07:54:44;31.38;;;16.92;;
70148;SDS011;57514;52.164;5.282;2024-03-08T07:57:11;28.85;;;16.05;;
70148;SDS011;57514;52.164;5.282;2024-03-08T07:59:38;32.45;;;18.95;;
70148;SDS011;57514;52.164;5.282;2024-03-08T08:02:06;28.52;;;16.27;;
70148;SDS011;57514;52.164;5.282;2024-03-08T08:04:34;31.48;;;17.30;;
70148;SDS011;57514;52.164;5.282;2024-03-08T08:07:02;33.10;;;18.90;;
70148;SDS011;57514;52.164;5.282;2024-03-08T08:09:29;32.33;;;18.45;;
70148;SDS011;57514;52.164;5.282;2024-03-08T08:12:01;30.90;;;17.52;;
70148;SDS011;57514;52.164;5.282;2024-03-08T08:14:29;31.08;;;18.02;;
70148;SDS011;57514;52.164;5.282;2024-03-08T08:16:57;28.42;;;15.43;;
70148;SDS011;57514;52.164;5.282;2024-03-08T08:19:27;28.77;;;17.65;;
70148;SDS011;57514;52.164;5.282;2024-03-08T08:21:54;29.85;;;18.08;;
70148;SDS011;57514;52.164;5.282;2024-03-08T08:24:22;32.67;;;17.17;;
70148;SDS011;57514;52.164;5.282;2024-03-08T08:26:49;26.98;;;15.10;;
70148;SDS011;57514;52.164;5.282;2024-03-08T08:29:16;27.02;;;16.45;;
70148;SDS011;57514;52.164;5.282;2024-03-08T08:31:44;28.95;;;18.35;;
70148;SDS011;57514;52.164;5.282;2024-03-08T08:34:11;23.52;;;12.73;;
70148;SDS011;57514;52.164;5.282;2024-03-08T08:36:40;27.05;;;15.63;;
70148;SDS011;57514;52.164;5.282;2024-03-08T08:39:07;29.13;;;18.13;;
70148;SDS011;57514;52.164;5.282;2024-03-08T08:41:39;30.73;;;17.67;;
70148;SDS011;57514;52.164;5.282;2024-03-08T08:44:07;32.88;;;18.77;;
70148;SDS011;57514;52.164;5.282;2024-03-08T08:46:42;28.40;;;17.15;;
70148;SDS011;57514;52.164;5.282;2024-03-08T08:49:09;30.27;;;18.90;;
70148;SDS011;57514;52.164;5.282;2024-03-08T08:51:48;32.25;;;18.90;;
70148;SDS011;57514;52.164;5.282;2024-03-08T08:54:15;28.95;;;17.83;;
70148;SDS011;57514;52.164;5.282;2024-03-08T08:56:43;29.55;;;19.05;;
70148;SDS011;57514;52.164;5.282;2024-03-08T08:59:11;27.77;;;17.80;;
70148;SDS011;57514;52.164;5.282;2024-03-08T09:01:40;28.38;;;18.40;;
70148;SDS011;57514;52.164;5.282;2024-03-08T09:04:07;31.33;;;18.05;;
70148;SDS011;57514;52.164;5.282;2024-03-08T09:06:35;28.58;;;18.73;;
70148;SDS011;57514;52.164;5.282;2024-03-08T09:09:02;30.25;;;19.48;;
70148;SDS011;57514;52.164;5.282;2024-03-08T09:13:59;27.92;;;18.27;;
70148;SDS011;57514;52.164;5.282;2024-03-08T09:16:28;29.63;;;19.67;;
70148;SDS011;57514;52.164;5.282;2024-03-08T09:18:55;28.65;;;18.05;;
70148;SDS011;57514;52.164;5.282;2024-03-08T09:21:23;31.13;;;19.58;;
70148;SDS011;57514;52.164;5.282;2024-03-08T09:23:50;29.73;;;17.88;;
70148;SDS011;57514;52.164;5.282;2024-03-08T09:26:18;32.92;;;19.10;;
70148;SDS011;57514;52.164;5.282;2024-03-08T09:28:54;28.58;;;17.60;;
70148;SDS011;57514;52.164;5.282;2024-03-08T09:31:22;27.17;;;17.80;;
70148;SDS011;57514;52.164;5.282;2024-03-08T09:33:49;25.48;;;17.15;;
70148;SDS011;57514;52.164;5.282;2024-03-08T09:36:17;28.73;;;16.70;;
70148;SDS011;57514;52.164;5.282;2024-03-08T09:38:44;30.67;;;20.42;;
70148;SDS011;57514;52.164;5.282;2024-03-08T09:41:11;27.90;;;17.67;;
70148;SDS011;57514;52.164;5.282;2024-03-08T09:43:39;30.08;;;18.42;;
70148;SDS011;57514;52.164;5.282;2024-03-08T09:46:06;27.13;;;16.65;;
70148;SDS011;57514;52.164;5.282;2024-03-08T09:48:34;26.90;;;17.25;;
70148;SDS011;57514;52.164;5.282;2024-03-08T09:51:02;27.38;;;17.05;;
70148;SDS011;57514;52.164;5.282;2024-03-08T09:53:30;28.33;;;17.70;;
70148;SDS011;57514;52.164;5.282;2024-03-08T09:55:57;26.88;;;16.85;;
70148;SDS011;57514;52.164;5.282;2024-03-08T09:58:25;27.20;;;18.77;;
70148;SDS011;57514;52.164;5.282;2024-03-08T10:00:59;25.83;;;16.63;;
70148;SDS011;57514;52.164;5.282;2024-03-08T10:03:30;27.08;;;17.17;;
70148;SDS011;57514;52.164;5.282;2024-03-08T10:06:01;25.95;;;17.13;;
70148;SDS011;57514;52.164;5.282;2024-03-08T10:08:28;26.77;;;16.35;;
70148;SDS011;57514;52.164;5.282;2024-03-08T10:10:56;26.40;;;18.02;;
70148;SDS011;57514;52.164;5.282;2024-03-08T10:13:26;28.85;;;17.45;;
70148;SDS011;57514;52.164;5.282;2024-03-08T10:15:54;26.55;;;17.05;;
70148;SDS011;57514;52.164;5.282;2024-03-08T10:18:21;24.92;;;15.85;;
70148;SDS011;57514;52.164;5.282;2024-03-08T10:21:02;25.55;;;16.70;;
70148;SDS011;57514;52.164;5.282;2024-03-08T10:23:30;26.48;;;17.65;;
70148;SDS011;57514;52.164;5.282;2024-03-08T10:26:09;25.10;;;15.93;;
70148;SDS011;57514;52.164;5.282;2024-03-08T10:28:44;26.65;;;17.15;;
70148;SDS011;57514;52.164;5.282;2024-03-08T10:31:18;27.63;;;18.10;;
70148;SDS011;57514;52.164;5.282;2024-03-08T10:33:46;25.98;;;17.40;;
70148;SDS011;57514;52.164;5.282;2024-03-08T10:36:14;25.02;;;16.23;;
70148;SDS011;57514;52.164;5.282;2024-03-08T10:38:45;25.98;;;17.55;;
70148;SDS011;57514;52.164;5.282;2024-03-08T10:41:14;27.42;;;18.42;;
70148;SDS011;57514;52.164;5.282;2024-03-08T10:46:42;23.73;;;15.45;;
70148;SDS011;57514;52.164;5.282;2024-03-08T10:49:17;23.45;;;16.60;;
70148;SDS011;57514;52.164;5.282;2024-03-08T10:51:49;25.23;;;17.52;;
70148;SDS011;57514;52.164;5.282;2024-03-08T10:54:18;24.63;;;16.67;;
70148;SDS011;57514;52.164;5.282;2024-03-08T10:56:47;22.40;;;14.48;;
70148;SDS011;57514;52.164;5.282;2024-03-08T10:59:18;24.38;;;16.55;;
70148;SDS011;57514;52.164;5.282;2024-03-08T11:01:46;24.88;;;17.05;;
70148;SDS011;57514;52.164;5.282;2024-03-08T11:04:14;23.27;;;16.00;;
70148;SDS011;57514;52.164;5.282;2024-03-08T11:06:42;22.75;;;14.38;;
70148;SDS011;57514;52.164;5.282;2024-03-08T11:09:27;24.10;;;15.43;;
70148;SDS011;57514;52.164;5.282;2024-03-08T11:14:52;23.55;;;15.45;;
70148;SDS011;57514;52.164;5.282;2024-03-08T11:17:20;23.10;;;15.60;;
70148;SDS011;57514;52.164;5.282;2024-03-08T11:19:51;21.20;;;12.85;;
70148;SDS011;57514;52.164;5.282;2024-03-08T11:22:23;22.63;;;15.02;;
70148;SDS011;57514;52.164;5.282;2024-03-08T11:24:58;24.23;;;15.13;;
70148;SDS011;57514;52.164;5.282;2024-03-08T11:27:29;24.95;;;15.73;;
70148;SDS011;57514;52.164;5.282;2024-03-08T11:30:06;23.92;;;16.70;;
70148;SDS011;57514;52.164;5.282;2024-03-08T11:32:46;24.95;;;15.52;;
70148;SDS011;57514;52.164;5.282;2024-03-08T11:35:20;23.73;;;14.93;;
70148;SDS011;57514;52.164;5.282;2024-03-08T11:37:49;22.40;;;15.82;;
70148;SDS011;57514;52.164;5.282;2024-03-08T11:40:17;23.05;;;14.65;;
70148;SDS011;57514;52.164;5.282;2024-03-08T11:42:46;21.17;;;15.13;;
70148;SDS011;57514;52.164;5.282;2024-03-08T11:45:15;20.45;;;13.57;;
70148;SDS011;57514;52.164;5.282;2024-03-08T11:47:44;22.77;;;15.02;;
70148;SDS011;57514;52.164;5.282;2024-03-08T11:50:16;17.55;;;10.90;;
70148;SDS011;57514;52.164;5.282;2024-03-08T11:52:45;22.88;;;13.43;;
70148;SDS011;57514;52.164;5.282;2024-03-08T11:55:13;22.00;;;14.55;;
70148;SDS011;57514;52.164;5.282;2024-03-08T11:57:41;23.02;;;15.48;;
70148;SDS011;57514;52.164;5.282;2024-03-08T12:00:15;18.33;;;11.45;;
70148;SDS011;57514;52.164;5.282;2024-03-08T12:03:04;20.30;;;12.85;;
70148;SDS011;57514;52.164;5.282;2024-03-08T12:05:32;22.02;;;12.82;;
70148;SDS011;57514;52.164;5.282;2024-03-08T12:08:00;20.35;;;13.73;;
70148;SDS011;57514;52.164;5.282;2024-03-08T12:10:28;21.45;;;15.00;;
70148;SDS011;57514;52.164;5.282;2024-03-08T12:12:57;22.42;;;14.57;;
70148;SDS011;57514;52.164;5.282;2024-03-08T12:15:29;20.65;;;13.32;;
70148;SDS011;57514;52.164;5.282;2024-03-08T12:18:00;19.95;;;12.25;;
70148;SDS011;57514;52.164;5.282;2024-03-08T12:20:28;19.15;;;12.13;;
70148;SDS011;57514;52.164;5.282;2024-03-08T12:22:56;19.63;;;13.13;;
70148;SDS011;57514;52.164;5.282;2024-03-08T12:25:27;21.75;;;12.82;;
70148;SDS011;57514;52.164;5.282;2024-03-08T12:28:08;23.83;;;13.80;;
70148;SDS011;57514;52.164;5.282;2024-03-08T12:30:50;19.35;;;11.75;;
70148;SDS011;57514;52.164;5.282;2024-03-08T12:33:20;20.95;;;13.77;;
70148;SDS011;57514;52.164;5.282;2024-03-08T12:35:52;21.05;;;12.57;;
70148;SDS011;57514;52.164;5.282;2024-03-08T12:38:21;20.48;;;12.05;;
70148;SDS011;57514;52.164;5.282;2024-03-08T12:40:58;16.60;;;9.93;;
70148;SDS011;57514;52.164;5.282;2024-03-08T12:43:25;19.85;;;12.80;;
70148;SDS011;57514;52.164;5.282;2024-03-08T12:45:56;20.27;;;13.13;;
70148;SDS011;57514;52.164;5.282;2024-03-08T12:48:24;21.35;;;12.90;;
70148;SDS011;57514;52.164;5.282;2024-03-08T12:50:51;17.90;;;11.63;;
70148;SDS011;57514;52.164;5.282;2024-03-08T12:53:20;21.33;;;12.25;;
70148;SDS011;57514;52.164;5.282;2024-03-08T12:55:49;17.95;;;10.68;;
70148;SDS011;57514;52.164;5.282;2024-03-08T12:58:17;16.48;;;9.48;;
70148;SDS011;57514;52.164;5.282;2024-03-08T13:00:46;19.60;;;11.43;;
70148;SDS011;57514;52.164;5.282;2024-03-08T13:03:19;20.27;;;12.23;;
70148;SDS011;57514;52.164;5.282;2024-03-08T13:05:48;17.23;;;10.23;;
70148;SDS011;57514;52.164;5.282;2024-03-08T13:08:15;20.77;;;10.27;;
70148;SDS011;57514;52.164;5.282;2024-03-08T13:10:44;22.33;;;12.98;;
70148;SDS011;57514;52.164;5.282;2024-03-08T13:13:12;21.05;;;12.38;;
70148;SDS011;57514;52.164;5.282;2024-03-08T13:15:43;19.50;;;11.23;;
70148;SDS011;57514;52.164;5.282;2024-03-08T13:18:10;22.27;;;12.48;;
70148;SDS011;57514;52.164;5.282;2024-03-08T13:20:38;23.83;;;13.85;;
70148;SDS011;57514;52.164;5.282;2024-03-08T13:23:12;21.85;;;11.73;;
70148;SDS011;57514;52.164;5.282;2024-03-08T13:25:40;22.38;;;11.60;;
70148;SDS011;57514;52.164;5.282;2024-03-08T13:28:07;18.63;;;12.07;;
70148;SDS011;57514;52.164;5.282;2024-03-08T13:30:35;21.95;;;12.00;;
70148;SDS011;57514;52.164;5.282;2024-03-08T13:33:03;20.52;;;11.90;;
70148;SDS011;57514;52.164;5.282;2024-03-08T13:35:31;21.30;;;13.45;;
70148;SDS011;57514;52.164;5.282;2024-03-08T13:38:00;22.02;;;13.38;;
70148;SDS011;57514;52.164;5.282;2024-03-08T13:40:31;23.40;;;13.27;;
70148;SDS011;57514;52.164;5.282;2024-03-08T13:42:59;20.60;;;12.38;;
70148;SDS011;57514;52.164;5.282;2024-03-08T13:45:27;20.95;;;12.40;;
70148;SDS011;57514;52.164;5.282;2024-03-08T13:47:54;22.25;;;13.70;;
70148;SDS011;57514;52.164;5.282;2024-03-08T13:50:22;23.58;;;12.10;;
70148;SDS011;57514;52.164;5.282;2024-03-08T13:52:50;20.73;;;12.18;;
70148;SDS011;57514;52.164;5.282;2024-03-08T13:57:48;22.52;;;13.32;;
70148;SDS011;57514;52.164;5.282;2024-03-08T14:00:17;23.80;;;12.73;;
70148;SDS011;57514;52.164;5.282;2024-03-08T14:02:47;20.77;;;11.55;;
70148;SDS011;57514;52.164;5.282;2024-03-08T14:05:15;21.90;;;13.20;;
70148;SDS011;57514;52.164;5.282;2024-03-08T14:07:45;22.38;;;12.57;;
70148;SDS011;57514;52.164;5.282;2024-03-08T14:10:15;21.50;;;11.90;;
70148;SDS011;57514;52.164;5.282;2024-03-08T14:12:46;21.58;;;12.10;;
70148;SDS011;57514;52.164;5.282;2024-03-08T14:15:17;20.20;;;10.55;;
70148;SDS011;57514;52.164;5.282;2024-03-08T14:17:44;20.65;;;11.35;;
70148;SDS011;57514;52.164;5.282;2024-03-08T14:20:13;19.23;;;10.73;;
70148;SDS011;57514;52.164;5.282;2024-03-08T14:22:41;21.83;;;12.63;;
70148;SDS011;57514;52.164;5.282;2024-03-08T14:25:08;22.42;;;12.73;;
70148;SDS011;57514;52.164;5.282;2024-03-08T14:27:44;20.48;;;12.63;;
70148;SDS011;57514;52.164;5.282;2024-03-08T14:30:12;20.55;;;11.23;;
70148;SDS011;57514;52.164;5.282;2024-03-08T14:32:44;20.83;;;12.50;;
70148;SDS011;57514;52.164;5.282;2024-03-08T14:35:14;21.38;;;10.73;;
70148;SDS011;57514;52.164;5.282;2024-03-08T14:37:41;23.65;;;11.73;;
70148;SDS011;57514;52.164;5.282;2024-03-08T14:40:09;21.95;;;11.05;;
70148;SDS011;57514;52.164;5.282;2024-03-08T14:42:37;25.63;;;13.13;;
70148;SDS011;57514;52.164;5.282;2024-03-08T14:45:04;22.92;;;12.25;;